Terminal Aerodrome Forecast
Issued by NWS

Home | Current Version | Previous Version | Text Only | Print | Product List | Glossary On
Versions: 1 2 3 4 5 6 7 8 9 10 11 12 13 14 15 16 17 18 19
000
FTUS41 KGYX 291732
TAFHIE
TAF
KHIE 291732Z 2918/3018 29006KT P6SM SCT050
     FM300900 00000KT 2SM BR BKN005
     FM301300 21004KT P6SM SCT040=

USA.gov is the U.S. government's official web portal to all federal, state and local government web resources and services.